sensor_id;sensor_type;location;lat;lon;timestamp;P1;durP1;ratioP1;P2;durP2;ratioP2
43146;SDS011;28752;48.266;7.402;2023-01-29T00:01:53;13.87;;;8.77;;
43146;SDS011;28752;48.266;7.402;2023-01-29T00:04:19;12.90;;;8.95;;
43146;SDS011;28752;48.266;7.402;2023-01-29T00:06:44;12.90;;;8.67;;
43146;SDS011;28752;48.266;7.402;2023-01-29T00:09:10;14.53;;;8.73;;
43146;SDS011;28752;48.266;7.402;2023-01-29T00:11:35;15.63;;;8.98;;
43146;SDS011;28752;48.266;7.402;2023-01-29T00:14:01;14.80;;;8.93;;
43146;SDS011;28752;48.266;7.402;2023-01-29T00:16:26;15.40;;;8.73;;
43146;SDS011;28752;48.266;7.402;2023-01-29T00:18:51;12.73;;;7.97;;
43146;SDS011;28752;48.266;7.402;2023-01-29T00:21:18;14.53;;;8.47;;
43146;SDS011;28752;48.266;7.402;2023-01-29T00:23:46;14.98;;;8.60;;
43146;SDS011;28752;48.266;7.402;2023-01-29T00:26:12;13.77;;;8.90;;
43146;SDS011;28752;48.266;7.402;2023-01-29T00:28:38;13.98;;;8.82;;
43146;SDS011;28752;48.266;7.402;2023-01-29T00:33:32;14.20;;;8.60;;
43146;SDS011;28752;48.266;7.402;2023-01-29T00:36:00;15.63;;;9.30;;
43146;SDS011;28752;48.266;7.402;2023-01-29T00:38:30;13.93;;;8.07;;
43146;SDS011;28752;48.266;7.402;2023-01-29T00:40:56;14.73;;;8.52;;
43146;SDS011;28752;48.266;7.402;2023-01-29T00:43:40;15.93;;;9.07;;
43146;SDS011;28752;48.266;7.402;2023-01-29T00:46:24;15.65;;;8.00;;
43146;SDS011;28752;48.266;7.402;2023-01-29T00:48:49;15.70;;;9.10;;
43146;SDS011;28752;48.266;7.402;2023-01-29T00:51:14;14.03;;;8.30;;
43146;SDS011;28752;48.266;7.402;2023-01-29T00:53:40;14.07;;;8.63;;
43146;SDS011;28752;48.266;7.402;2023-01-29T00:56:05;13.57;;;9.00;;
43146;SDS011;28752;48.266;7.402;2023-01-29T00:58:31;15.27;;;8.95;;
43146;SDS011;28752;48.266;7.402;2023-01-29T01:00:58;15.15;;;8.73;;
43146;SDS011;28752;48.266;7.402;2023-01-29T01:03:25;12.27;;;8.43;;
43146;SDS011;28752;48.266;7.402;2023-01-29T01:06:01;13.73;;;8.07;;
43146;SDS011;28752;48.266;7.402;2023-01-29T01:08:34;13.63;;;7.65;;
43146;SDS011;28752;48.266;7.402;2023-01-29T01:11:18;13.90;;;8.57;;
43146;SDS011;28752;48.266;7.402;2023-01-29T01:13:44;15.70;;;9.57;;
43146;SDS011;28752;48.266;7.402;2023-01-29T01:16:10;13.83;;;8.67;;
43146;SDS011;28752;48.266;7.402;2023-01-29T01:18:40;11.93;;;7.70;;
43146;SDS011;28752;48.266;7.402;2023-01-29T01:21:06;13.00;;;7.32;;
43146;SDS011;28752;48.266;7.402;2023-01-29T01:23:32;13.63;;;7.70;;
43146;SDS011;28752;48.266;7.402;2023-01-29T01:25:57;13.77;;;7.75;;
43146;SDS011;28752;48.266;7.402;2023-01-29T01:28:23;12.73;;;8.07;;
43146;SDS011;28752;48.266;7.402;2023-01-29T01:30:48;11.87;;;7.47;;
43146;SDS011;28752;48.266;7.402;2023-01-29T01:33:14;14.00;;;7.80;;
43146;SDS011;28752;48.266;7.402;2023-01-29T01:35:39;12.85;;;7.28;;
43146;SDS011;28752;48.266;7.402;2023-01-29T01:38:05;12.20;;;7.67;;
43146;SDS011;28752;48.266;7.402;2023-01-29T01:40:30;14.00;;;8.27;;
43146;SDS011;28752;48.266;7.402;2023-01-29T01:42:56;13.20;;;7.47;;
43146;SDS011;28752;48.266;7.402;2023-01-29T01:45:27;11.43;;;7.22;;
43146;SDS011;28752;48.266;7.402;2023-01-29T01:48:04;13.85;;;7.80;;
43146;SDS011;28752;48.266;7.402;2023-01-29T01:50:38;11.63;;;7.32;;
43146;SDS011;28752;48.266;7.402;2023-01-29T01:53:08;11.82;;;7.13;;
43146;SDS011;28752;48.266;7.402;2023-01-29T01:55:37;11.65;;;7.25;;
43146;SDS011;28752;48.266;7.402;2023-01-29T01:58:35;13.20;;;7.60;;
43146;SDS011;28752;48.266;7.402;2023-01-29T02:01:01;11.57;;;7.53;;
43146;SDS011;28752;48.266;7.402;2023-01-29T02:03:31;12.43;;;7.50;;
43146;SDS011;28752;48.266;7.402;2023-01-29T02:06:19;12.55;;;7.53;;
43146;SDS011;28752;48.266;7.402;2023-01-29T02:09:05;11.80;;;6.88;;
43146;SDS011;28752;48.266;7.402;2023-01-29T02:11:55;12.10;;;7.10;;
43146;SDS011;28752;48.266;7.402;2023-01-29T02:14:20;11.97;;;6.90;;
43146;SDS011;28752;48.266;7.402;2023-01-29T02:16:46;12.65;;;7.22;;
43146;SDS011;28752;48.266;7.402;2023-01-29T02:19:15;12.60;;;7.13;;
43146;SDS011;28752;48.266;7.402;2023-01-29T02:27:58;12.90;;;7.03;;
43146;SDS011;28752;48.266;7.402;2023-01-29T02:36:12;11.10;;;6.63;;
43146;SDS011;28752;48.266;7.402;2023-01-29T02:41:27;11.90;;;6.72;;
43146;SDS011;28752;48.266;7.402;2023-01-29T02:47:03;13.95;;;7.32;;
43146;SDS011;28752;48.266;7.402;2023-01-29T02:52:27;12.57;;;6.88;;
43146;SDS011;28752;48.266;7.402;2023-01-29T02:55:06;10.93;;;6.82;;
43146;SDS011;28752;48.266;7.402;2023-01-29T02:57:38;11.40;;;6.82;;
43146;SDS011;28752;48.266;7.402;2023-01-29T03:02:50;12.68;;;7.20;;
43146;SDS011;28752;48.266;7.402;2023-01-29T03:05:29;12.15;;;7.53;;
43146;SDS011;28752;48.266;7.402;2023-01-29T03:08:03;15.20;;;8.27;;
43146;SDS011;28752;48.266;7.402;2023-01-29T03:10:36;18.02;;;8.32;;
43146;SDS011;28752;48.266;7.402;2023-01-29T03:13:11;12.23;;;6.78;;
43146;SDS011;28752;48.266;7.402;2023-01-29T03:15:42;13.07;;;7.72;;
43146;SDS011;28752;48.266;7.402;2023-01-29T03:18:12;15.48;;;8.65;;
43146;SDS011;28752;48.266;7.402;2023-01-29T03:20:43;13.05;;;8.00;;
43146;SDS011;28752;48.266;7.402;2023-01-29T03:23:16;14.30;;;7.70;;
43146;SDS011;28752;48.266;7.402;2023-01-29T03:25:53;13.82;;;8.38;;
43146;SDS011;28752;48.266;7.402;2023-01-29T03:28:42;13.00;;;7.75;;
43146;SDS011;28752;48.266;7.402;2023-01-29T03:31:28;12.95;;;8.00;;
43146;SDS011;28752;48.266;7.402;2023-01-29T03:34:21;13.77;;;7.82;;
43146;SDS011;28752;48.266;7.402;2023-01-29T03:37:08;13.88;;;7.90;;
43146;SDS011;28752;48.266;7.402;2023-01-29T03:39:40;13.38;;;7.32;;
43146;SDS011;28752;48.266;7.402;2023-01-29T03:52:49;12.52;;;7.30;;
43146;SDS011;28752;48.266;7.402;2023-01-29T04:03:49;13.23;;;7.10;;
43146;SDS011;28752;48.266;7.402;2023-01-29T04:06:20;11.27;;;7.25;;
43146;SDS011;28752;48.266;7.402;2023-01-29T04:08:52;13.15;;;7.80;;
43146;SDS011;28752;48.266;7.402;2023-01-29T04:11:26;11.40;;;6.63;;
43146;SDS011;28752;48.266;7.402;2023-01-29T04:13:53;12.00;;;7.03;;
43146;SDS011;28752;48.266;7.402;2023-01-29T04:16:21;12.45;;;7.80;;
43146;SDS011;28752;48.266;7.402;2023-01-29T04:18:51;11.77;;;6.85;;
43146;SDS011;28752;48.266;7.402;2023-01-29T04:21:18;11.63;;;7.10;;
43146;SDS011;28752;48.266;7.402;2023-01-29T04:23:44;12.68;;;7.15;;
43146;SDS011;28752;48.266;7.402;2023-01-29T04:31:40;12.55;;;7.07;;
43146;SDS011;28752;48.266;7.402;2023-01-29T04:37:08;13.25;;;7.53;;
43146;SDS011;28752;48.266;7.402;2023-01-29T04:40:29;12.15;;;6.90;;
43146;SDS011;28752;48.266;7.402;2023-01-29T04:48:23;12.05;;;6.43;;
43146;SDS011;28752;48.266;7.402;2023-01-29T04:53:34;11.88;;;6.93;;
43146;SDS011;28752;48.266;7.402;2023-01-29T04:56:08;15.07;;;6.65;;
43146;SDS011;28752;48.266;7.402;2023-01-29T04:58:40;10.90;;;6.38;;
43146;SDS011;28752;48.266;7.402;2023-01-29T05:01:10;11.57;;;6.15;;
43146;SDS011;28752;48.266;7.402;2023-01-29T05:03:40;13.25;;;7.20;;
43146;SDS011;28752;48.266;7.402;2023-01-29T05:06:09;12.70;;;7.10;;
43146;SDS011;28752;48.266;7.402;2023-01-29T05:08:36;11.07;;;6.85;;
43146;SDS011;28752;48.266;7.402;2023-01-29T05:11:02;10.20;;;6.10;;
43146;SDS011;28752;48.266;7.402;2023-01-29T05:13:29;11.60;;;6.47;;
43146;SDS011;28752;48.266;7.402;2023-01-29T05:15:58;11.40;;;6.32;;
43146;SDS011;28752;48.266;7.402;2023-01-29T05:18:39;11.00;;;5.95;;
43146;SDS011;28752;48.266;7.402;2023-01-29T05:21:05;8.57;;;6.00;;
43146;SDS011;28752;48.266;7.402;2023-01-29T05:23:32;9.95;;;6.20;;
43146;SDS011;28752;48.266;7.402;2023-01-29T05:25:58;11.60;;;6.25;;
43146;SDS011;28752;48.266;7.402;2023-01-29T05:28:24;13.20;;;6.60;;
43146;SDS011;28752;48.266;7.402;2023-01-29T05:30:50;9.90;;;6.30;;
43146;SDS011;28752;48.266;7.402;2023-01-29T05:33:25;9.65;;;5.97;;
43146;SDS011;28752;48.266;7.402;2023-01-29T05:35:52;14.40;;;7.43;;
43146;SDS011;28752;48.266;7.402;2023-01-29T05:38:19;12.70;;;8.15;;
43146;SDS011;28752;48.266;7.402;2023-01-29T05:40:46;10.70;;;6.85;;
43146;SDS011;28752;48.266;7.402;2023-01-29T05:43:13;10.73;;;6.43;;
43146;SDS011;28752;48.266;7.402;2023-01-29T05:45:40;11.20;;;6.40;;
43146;SDS011;28752;48.266;7.402;2023-01-29T05:48:06;10.77;;;6.13;;
43146;SDS011;28752;48.266;7.402;2023-01-29T05:50:31;10.57;;;6.60;;
43146;SDS011;28752;48.266;7.402;2023-01-29T05:53:00;12.23;;;7.33;;
43146;SDS011;28752;48.266;7.402;2023-01-29T05:55:26;13.38;;;7.57;;
43146;SDS011;28752;48.266;7.402;2023-01-29T05:57:53;14.77;;;9.25;;
43146;SDS011;28752;48.266;7.402;2023-01-29T06:00:19;19.52;;;10.73;;
43146;SDS011;28752;48.266;7.402;2023-01-29T06:02:44;10.95;;;6.65;;
43146;SDS011;28752;48.266;7.402;2023-01-29T06:05:10;21.65;;;12.38;;
43146;SDS011;28752;48.266;7.402;2023-01-29T06:07:35;24.90;;;12.57;;
43146;SDS011;28752;48.266;7.402;2023-01-29T06:10:01;16.87;;;8.70;;
43146;SDS011;28752;48.266;7.402;2023-01-29T06:12:28;16.65;;;10.82;;
43146;SDS011;28752;48.266;7.402;2023-01-29T06:14:53;15.43;;;9.07;;
43146;SDS011;28752;48.266;7.402;2023-01-29T06:17:18;15.20;;;8.13;;
43146;SDS011;28752;48.266;7.402;2023-01-29T06:19:44;13.90;;;7.97;;
43146;SDS011;28752;48.266;7.402;2023-01-29T06:22:09;11.07;;;7.27;;
43146;SDS011;28752;48.266;7.402;2023-01-29T06:24:35;11.90;;;7.53;;
43146;SDS011;28752;48.266;7.402;2023-01-29T06:27:00;11.07;;;7.28;;
43146;SDS011;28752;48.266;7.402;2023-01-29T06:29:26;11.37;;;7.07;;
43146;SDS011;28752;48.266;7.402;2023-01-29T06:31:51;12.88;;;8.07;;
43146;SDS011;28752;48.266;7.402;2023-01-29T06:34:17;11.83;;;7.63;;
43146;SDS011;28752;48.266;7.402;2023-01-29T06:36:42;12.77;;;7.53;;
43146;SDS011;28752;48.266;7.402;2023-01-29T06:39:10;12.00;;;7.33;;
43146;SDS011;28752;48.266;7.402;2023-01-29T06:41:36;13.38;;;7.53;;
43146;SDS011;28752;48.266;7.402;2023-01-29T06:44:01;12.07;;;7.70;;
43146;SDS011;28752;48.266;7.402;2023-01-29T06:46:27;13.90;;;8.17;;
43146;SDS011;28752;48.266;7.402;2023-01-29T06:48:52;12.03;;;6.90;;
43146;SDS011;28752;48.266;7.402;2023-01-29T06:51:17;11.50;;;7.20;;
43146;SDS011;28752;48.266;7.402;2023-01-29T06:53:43;11.67;;;7.40;;
43146;SDS011;28752;48.266;7.402;2023-01-29T06:56:08;12.83;;;7.73;;
43146;SDS011;28752;48.266;7.402;2023-01-29T06:58:37;10.90;;;6.63;;
43146;SDS011;28752;48.266;7.402;2023-01-29T07:01:06;10.93;;;6.85;;
43146;SDS011;28752;48.266;7.402;2023-01-29T07:03:33;11.20;;;6.72;;
43146;SDS011;28752;48.266;7.402;2023-01-29T07:05:58;10.87;;;6.90;;
43146;SDS011;28752;48.266;7.402;2023-01-29T07:08:24;14.48;;;7.78;;
43146;SDS011;28752;48.266;7.402;2023-01-29T07:10:49;11.87;;;6.90;;
43146;SDS011;28752;48.266;7.402;2023-01-29T07:13:15;12.20;;;7.60;;
43146;SDS011;28752;48.266;7.402;2023-01-29T07:15:41;11.15;;;7.22;;
43146;SDS011;28752;48.266;7.402;2023-01-29T07:18:06;13.30;;;7.75;;
43146;SDS011;28752;48.266;7.402;2023-01-29T07:20:37;13.57;;;7.90;;
43146;SDS011;28752;48.266;7.402;2023-01-29T07:23:03;12.43;;;8.00;;
43146;SDS011;28752;48.266;7.402;2023-01-29T07:25:29;13.50;;;8.30;;
43146;SDS011;28752;48.266;7.402;2023-01-29T07:27:55;12.13;;;7.33;;
43146;SDS011;28752;48.266;7.402;2023-01-29T07:30:20;13.73;;;8.07;;
43146;SDS011;28752;48.266;7.402;2023-01-29T07:32:46;12.70;;;8.10;;
43146;SDS011;28752;48.266;7.402;2023-01-29T07:35:11;12.55;;;7.93;;
43146;SDS011;28752;48.266;7.402;2023-01-29T07:37:37;12.37;;;7.60;;
43146;SDS011;28752;48.266;7.402;2023-01-29T07:40:02;13.70;;;8.27;;
43146;SDS011;28752;48.266;7.402;2023-01-29T07:42:34;14.27;;;8.38;;
43146;SDS011;28752;48.266;7.402;2023-01-29T07:44:59;14.10;;;8.43;;
43146;SDS011;28752;48.266;7.402;2023-01-29T07:47:25;14.63;;;8.95;;
43146;SDS011;28752;48.266;7.402;2023-01-29T07:49:50;12.87;;;8.40;;
43146;SDS011;28752;48.266;7.402;2023-01-29T07:52:15;14.83;;;9.10;;
43146;SDS011;28752;48.266;7.402;2023-01-29T07:54:42;13.93;;;8.48;;
43146;SDS011;28752;48.266;7.402;2023-01-29T07:57:08;14.65;;;8.48;;
43146;SDS011;28752;48.266;7.402;2023-01-29T07:59:33;15.17;;;8.93;;
43146;SDS011;28752;48.266;7.402;2023-01-29T08:01:58;14.30;;;8.90;;
43146;SDS011;28752;48.266;7.402;2023-01-29T08:04:24;13.53;;;7.93;;
43146;SDS011;28752;48.266;7.402;2023-01-29T08:06:49;15.53;;;9.67;;
43146;SDS011;28752;48.266;7.402;2023-01-29T08:09:14;14.27;;;8.93;;
43146;SDS011;28752;48.266;7.402;2023-01-29T08:11:40;14.30;;;9.13;;
43146;SDS011;28752;48.266;7.402;2023-01-29T08:14:05;14.40;;;8.73;;
43146;SDS011;28752;48.266;7.402;2023-01-29T08:16:33;13.88;;;8.90;;
43146;SDS011;28752;48.266;7.402;2023-01-29T08:19:00;17.75;;;10.48;;
43146;SDS011;28752;48.266;7.402;2023-01-29T08:21:26;32.03;;;19.45;;
43146;SDS011;28752;48.266;7.402;2023-01-29T08:23:51;15.07;;;9.30;;
43146;SDS011;28752;48.266;7.402;2023-01-29T08:26:16;16.17;;;9.40;;
43146;SDS011;28752;48.266;7.402;2023-01-29T08:28:42;14.37;;;9.07;;
43146;SDS011;28752;48.266;7.402;2023-01-29T08:31:17;13.40;;;8.30;;
43146;SDS011;28752;48.266;7.402;2023-01-29T08:33:46;15.70;;;8.90;;
43146;SDS011;28752;48.266;7.402;2023-01-29T08:36:12;13.65;;;8.68;;
43146;SDS011;28752;48.266;7.402;2023-01-29T08:38:38;16.10;;;9.13;;
43146;SDS011;28752;48.266;7.402;2023-01-29T08:41:05;14.38;;;9.02;;
43146;SDS011;28752;48.266;7.402;2023-01-29T08:43:30;16.55;;;10.27;;
43146;SDS011;28752;48.266;7.402;2023-01-29T08:45:56;15.27;;;9.67;;
43146;SDS011;28752;48.266;7.402;2023-01-29T08:48:21;13.60;;;8.70;;
43146;SDS011;28752;48.266;7.402;2023-01-29T08:50:46;15.63;;;10.23;;
43146;SDS011;28752;48.266;7.402;2023-01-29T08:53:12;15.17;;;9.60;;
43146;SDS011;28752;48.266;7.402;2023-01-29T08:55:40;15.03;;;10.10;;
43146;SDS011;28752;48.266;7.402;2023-01-29T08:58:06;15.35;;;10.73;;
43146;SDS011;28752;48.266;7.402;2023-01-29T09:00:33;23.40;;;17.50;;
43146;SDS011;28752;48.266;7.402;2023-01-29T09:02:58;17.17;;;10.85;;
43146;SDS011;28752;48.266;7.402;2023-01-29T09:05:25;12.15;;;8.40;;
43146;SDS011;28752;48.266;7.402;2023-01-29T09:07:50;16.13;;;10.35;;
43146;SDS011;28752;48.266;7.402;2023-01-29T09:10:16;16.73;;;10.77;;
43146;SDS011;28752;48.266;7.402;2023-01-29T09:12:41;16.83;;;11.00;;
43146;SDS011;28752;48.266;7.402;2023-01-29T09:15:07;16.52;;;10.15;;
43146;SDS011;28752;48.266;7.402;2023-01-29T09:17:33;14.20;;;9.13;;
43146;SDS011;28752;48.266;7.402;2023-01-29T09:19:58;13.32;;;8.68;;
43146;SDS011;28752;48.266;7.402;2023-01-29T09:22:24;15.57;;;9.43;;
43146;SDS011;28752;48.266;7.402;2023-01-29T09:24:49;15.38;;;8.73;;
43146;SDS011;28752;48.266;7.402;2023-01-29T09:27:15;16.13;;;9.80;;
43146;SDS011;28752;48.266;7.402;2023-01-29T09:29:40;15.57;;;9.27;;
43146;SDS011;28752;48.266;7.402;2023-01-29T09:32:07;13.93;;;8.90;;
43146;SDS011;28752;48.266;7.402;2023-01-29T09:34:32;13.63;;;8.93;;
43146;SDS011;28752;48.266;7.402;2023-01-29T09:36:58;17.40;;;10.40;;
43146;SDS011;28752;48.266;7.402;2023-01-29T09:39:23;17.77;;;10.77;;
43146;SDS011;28752;48.266;7.402;2023-01-29T09:45:04;16.38;;;9.30;;
43146;SDS011;28752;48.266;7.402;2023-01-29T09:47:36;15.73;;;9.10;;
43146;SDS011;28752;48.266;7.402;2023-01-29T09:52:58;15.43;;;9.30;;
43146;SDS011;28752;48.266;7.402;2023-01-29T09:57:58;15.17;;;9.07;;
43146;SDS011;28752;48.266;7.402;2023-01-29T10:00:38;16.63;;;10.43;;
43146;SDS011;28752;48.266;7.402;2023-01-29T10:13:43;13.48;;;8.55;;
43146;SDS011;28752;48.266;7.402;2023-01-29T10:16:30;15.48;;;9.05;;
43146;SDS011;28752;48.266;7.402;2023-01-29T10:24:51;11.80;;;7.88;;
43146;SDS011;28752;48.266;7.402;2023-01-29T10:27:22;13.43;;;8.70;;
43146;SDS011;28752;48.266;7.402;2023-01-29T10:29:53;15.57;;;9.43;;
43146;SDS011;28752;48.266;7.402;2023-01-29T10:32:20;14.35;;;9.15;;
43146;SDS011;28752;48.266;7.402;2023-01-29T10:34:56;12.18;;;7.63;;
43146;SDS011;28752;48.266;7.402;2023-01-29T10:40:27;13.95;;;7.88;;
43146;SDS011;28752;48.266;7.402;2023-01-29T11:00:01;13.15;;;8.32;;
43146;SDS011;28752;48.266;7.402;2023-01-29T11:02:32;12.35;;;8.60;;
43146;SDS011;28752;48.266;7.402;2023-01-29T11:04:57;13.07;;;8.20;;
43146;SDS011;28752;48.266;7.402;2023-01-29T11:07:23;13.27;;;8.83;;
43146;SDS011;28752;48.266;7.402;2023-01-29T11:12:15;13.70;;;9.20;;
43146;SDS011;28752;48.266;7.402;2023-01-29T11:14:48;11.18;;;7.40;;
43146;SDS011;28752;48.266;7.402;2023-01-29T11:17:18;12.43;;;8.05;;
43146;SDS011;28752;48.266;7.402;2023-01-29T11:19:46;14.13;;;9.63;;
43146;SDS011;28752;48.266;7.402;2023-01-29T11:22:15;17.55;;;9.57;;
43146;SDS011;28752;48.266;7.402;2023-01-29T11:24:44;9.68;;;6.35;;
43146;SDS011;28752;48.266;7.402;2023-01-29T11:29:51;8.95;;;5.78;;
43146;SDS011;28752;48.266;7.402;2023-01-29T11:35:02;9.10;;;5.83;;
43146;SDS011;28752;48.266;7.402;2023-01-29T11:37:48;10.32;;;6.78;;
43146;SDS011;28752;48.266;7.402;2023-01-29T11:42:42;11.05;;;7.10;;
43146;SDS011;28752;48.266;7.402;2023-01-29T11:45:30;11.00;;;6.80;;
43146;SDS011;28752;48.266;7.402;2023-01-29T11:47:57;9.82;;;7.00;;
43146;SDS011;28752;48.266;7.402;2023-01-29T11:50:27;10.98;;;7.03;;
43146;SDS011;28752;48.266;7.402;2023-01-29T11:52:54;12.13;;;7.78;;
43146;SDS011;28752;48.266;7.402;2023-01-29T11:55:24;12.77;;;7.47;;
43146;SDS011;28752;48.266;7.402;2023-01-29T11:57:52;10.77;;;7.03;;
43146;SDS011;28752;48.266;7.402;2023-01-29T12:02:56;11.47;;;7.43;;
43146;SDS011;28752;48.266;7.402;2023-01-29T12:05:28;13.57;;;8.35;;
43146;SDS011;28752;48.266;7.402;2023-01-29T12:07:57;11.30;;;7.37;;
43146;SDS011;28752;48.266;7.402;2023-01-29T12:10:35;11.07;;;6.78;;
43146;SDS011;28752;48.266;7.402;2023-01-29T12:15:42;14.65;;;9.63;;
43146;SDS011;28752;48.266;7.402;2023-01-29T12:20:46;12.20;;;8.73;;
43146;SDS011;28752;48.266;7.402;2023-01-29T12:26:11;10.60;;;7.05;;
43146;SDS011;28752;48.266;7.402;2023-01-29T12:36:58;11.18;;;7.45;;
43146;SDS011;28752;48.266;7.402;2023-01-29T12:39:30;11.77;;;8.25;;
43146;SDS011;28752;48.266;7.402;2023-01-29T12:41:57;13.48;;;8.43;;
43146;SDS011;28752;48.266;7.402;2023-01-29T12:44:35;12.05;;;7.75;;
43146;SDS011;28752;48.266;7.402;2023-01-29T12:47:06;12.35;;;8.48;;
43146;SDS011;28752;48.266;7.402;2023-01-29T12:49:36;13.65;;;8.52;;
43146;SDS011;28752;48.266;7.402;2023-01-29T12:52:09;12.38;;;8.52;;
43146;SDS011;28752;48.266;7.402;2023-01-29T12:57:17;12.20;;;7.65;;
43146;SDS011;28752;48.266;7.402;2023-01-29T13:02:35;12.70;;;7.80;;
43146;SDS011;28752;48.266;7.402;2023-01-29T13:05:18;11.77;;;8.23;;
43146;SDS011;28752;48.266;7.402;2023-01-29T13:10:54;12.18;;;8.00;;
43146;SDS011;28752;48.266;7.402;2023-01-29T13:13:48;12.13;;;7.90;;
43146;SDS011;28752;48.266;7.402;2023-01-29T13:16:18;12.27;;;7.65;;
43146;SDS011;28752;48.266;7.402;2023-01-29T13:18:52;12.45;;;7.90;;
43146;SDS011;28752;48.266;7.402;2023-01-29T13:21:25;12.18;;;8.02;;
43146;SDS011;28752;48.266;7.402;2023-01-29T13:24:02;11.15;;;7.30;;
43146;SDS011;28752;48.266;7.402;2023-01-29T13:26:33;11.38;;;7.53;;
43146;SDS011;28752;48.266;7.402;2023-01-29T13:28:59;11.30;;;7.45;;
43146;SDS011;28752;48.266;7.402;2023-01-29T13:34:15;21.58;;;14.60;;
43146;SDS011;28752;48.266;7.402;2023-01-29T13:36:47;12.43;;;8.38;;
43146;SDS011;28752;48.266;7.402;2023-01-29T13:39:22;11.55;;;7.32;;
43146;SDS011;28752;48.266;7.402;2023-01-29T13:46:57;12.02;;;7.90;;
43146;SDS011;28752;48.266;7.402;2023-01-29T13:49:29;12.18;;;7.63;;
43146;SDS011;28752;48.266;7.402;2023-01-29T13:54:48;11.18;;;7.07;;
43146;SDS011;28752;48.266;7.402;2023-01-29T14:00:53;11.50;;;8.05;;
43146;SDS011;28752;48.266;7.402;2023-01-29T14:13:43;13.13;;;8.38;;
43146;SDS011;28752;48.266;7.402;2023-01-29T14:18:52;11.68;;;7.57;;
43146;SDS011;28752;48.266;7.402;2023-01-29T14:21:30;12.15;;;8.02;;
43146;SDS011;28752;48.266;7.402;2023-01-29T14:23:58;12.18;;;8.00;;
43146;SDS011;28752;48.266;7.402;2023-01-29T14:31:31;12.00;;;8.43;;
43146;SDS011;28752;48.266;7.402;2023-01-29T14:34:03;13.38;;;8.90;;
43146;SDS011;28752;48.266;7.402;2023-01-29T14:36:40;13.18;;;8.80;;
43146;SDS011;28752;48.266;7.402;2023-01-29T14:39:18;14.90;;;9.13;;
43146;SDS011;28752;48.266;7.402;2023-01-29T14:41:57;15.15;;;8.23;;
43146;SDS011;28752;48.266;7.402;2023-01-29T14:52:52;14.00;;;8.85;;
43146;SDS011;28752;48.266;7.402;2023-01-29T14:55:27;12.20;;;8.38;;
43146;SDS011;28752;48.266;7.402;2023-01-29T14:57:55;14.48;;;8.43;;
43146;SDS011;28752;48.266;7.402;2023-01-29T15:00:25;13.10;;;8.68;;
43146;SDS011;28752;48.266;7.402;2023-01-29T15:02:54;12.43;;;8.10;;
43146;SDS011;28752;48.266;7.402;2023-01-29T15:05:23;14.02;;;8.95;;
43146;SDS011;28752;48.266;7.402;2023-01-29T15:08:07;14.70;;;10.02;;
43146;SDS011;28752;48.266;7.402;2023-01-29T15:10:47;14.45;;;8.75;;
43146;SDS011;28752;48.266;7.402;2023-01-29T15:13:36;13.93;;;9.02;;
43146;SDS011;28752;48.266;7.402;2023-01-29T15:16:23;15.98;;;9.55;;
43146;SDS011;28752;48.266;7.402;2023-01-29T15:18:55;15.13;;;9.43;;
43146;SDS011;28752;48.266;7.402;2023-01-29T15:21:28;14.57;;;9.27;;
43146;SDS011;28752;48.266;7.402;2023-01-29T15:24:02;16.73;;;9.10;;
43146;SDS011;28752;48.266;7.402;2023-01-29T15:36:16;15.32;;;8.65;;
43146;SDS011;28752;48.266;7.402;2023-01-29T15:38:44;15.40;;;9.38;;
43146;SDS011;28752;48.266;7.402;2023-01-29T15:41:20;14.93;;;9.57;;
43146;SDS011;28752;48.266;7.402;2023-01-29T15:43:48;14.80;;;8.50;;
43146;SDS011;28752;48.266;7.402;2023-01-29T15:46:22;14.30;;;9.60;;
43146;SDS011;28752;48.266;7.402;2023-01-29T15:48:50;17.73;;;10.73;;
43146;SDS011;28752;48.266;7.402;2023-01-29T15:51:18;19.10;;;11.60;;
43146;SDS011;28752;48.266;7.402;2023-01-29T15:56:17;16.48;;;10.45;;
43146;SDS011;28752;48.266;7.402;2023-01-29T15:58:45;16.35;;;10.60;;
43146;SDS011;28752;48.266;7.402;2023-01-29T16:01:13;16.67;;;10.25;;
43146;SDS011;28752;48.266;7.402;2023-01-29T16:03:39;14.63;;;9.30;;
43146;SDS011;28752;48.266;7.402;2023-01-29T16:06:04;14.53;;;9.07;;
43146;SDS011;28752;48.266;7.402;2023-01-29T16:08:31;17.52;;;10.18;;
43146;SDS011;28752;48.266;7.402;2023-01-29T16:10:58;16.73;;;10.43;;
43146;SDS011;28752;48.266;7.402;2023-01-29T16:13:26;17.40;;;10.65;;
43146;SDS011;28752;48.266;7.402;2023-01-29T16:15:55;15.30;;;9.48;;
43146;SDS011;28752;48.266;7.402;2023-01-29T16:18:45;16.92;;;8.85;;
43146;SDS011;28752;48.266;7.402;2023-01-29T16:21:15;15.95;;;9.75;;
43146;SDS011;28752;48.266;7.402;2023-01-29T16:26:15;15.15;;;9.55;;
43146;SDS011;28752;48.266;7.402;2023-01-29T16:28:44;15.20;;;9.90;;
43146;SDS011;28752;48.266;7.402;2023-01-29T16:31:11;15.48;;;9.65;;
43146;SDS011;28752;48.266;7.402;2023-01-29T16:33:38;17.30;;;10.80;;
43146;SDS011;28752;48.266;7.402;2023-01-29T16:36:07;15.82;;;9.48;;
43146;SDS011;28752;48.266;7.402;2023-01-29T16:38:55;16.38;;;9.73;;
43146;SDS011;28752;48.266;7.402;2023-01-29T16:44:02;17.50;;;9.90;;
43146;SDS011;28752;48.266;7.402;2023-01-29T16:46:47;17.95;;;10.77;;
43146;SDS011;28752;48.266;7.402;2023-01-29T16:51:53;17.02;;;10.93;;
43146;SDS011;28752;48.266;7.402;2023-01-29T16:54:22;17.45;;;10.52;;
43146;SDS011;28752;48.266;7.402;2023-01-29T16:56:50;21.73;;;12.27;;
43146;SDS011;28752;48.266;7.402;2023-01-29T16:59:21;22.55;;;12.88;;
43146;SDS011;28752;48.266;7.402;2023-01-29T17:01:58;22.35;;;12.32;;
43146;SDS011;28752;48.266;7.402;2023-01-29T17:04:25;23.10;;;12.10;;
43146;SDS011;28752;48.266;7.402;2023-01-29T17:06:56;23.92;;;13.25;;
43146;SDS011;28752;48.266;7.402;2023-01-29T17:09:27;19.88;;;11.45;;
43146;SDS011;28752;48.266;7.402;2023-01-29T17:11:56;17.83;;;9.93;;
43146;SDS011;28752;48.266;7.402;2023-01-29T17:14:24;13.63;;;8.68;;
43146;SDS011;28752;48.266;7.402;2023-01-29T17:16:54;15.40;;;9.27;;
43146;SDS011;28752;48.266;7.402;2023-01-29T17:19:26;15.20;;;9.18;;
43146;SDS011;28752;48.266;7.402;2023-01-29T17:21:51;18.75;;;11.20;;
43146;SDS011;28752;48.266;7.402;2023-01-29T17:24:17;19.45;;;11.77;;
43146;SDS011;28752;48.266;7.402;2023-01-29T17:26:42;20.50;;;11.73;;
43146;SDS011;28752;48.266;7.402;2023-01-29T17:29:19;17.47;;;11.10;;
43146;SDS011;28752;48.266;7.402;2023-01-29T17:31:50;18.33;;;11.45;;
43146;SDS011;28752;48.266;7.402;2023-01-29T17:34:15;18.63;;;11.87;;
43146;SDS011;28752;48.266;7.402;2023-01-29T17:36:42;20.50;;;12.00;;
43146;SDS011;28752;48.266;7.402;2023-01-29T17:39:15;19.85;;;12.02;;
43146;SDS011;28752;48.266;7.402;2023-01-29T17:41:41;19.77;;;11.98;;
43146;SDS011;28752;48.266;7.402;2023-01-29T17:44:08;18.65;;;11.82;;
43146;SDS011;28752;48.266;7.402;2023-01-29T17:46:33;18.20;;;11.87;;
43146;SDS011;28752;48.266;7.402;2023-01-29T17:48:59;16.87;;;11.13;;
43146;SDS011;28752;48.266;7.402;2023-01-29T17:51:24;18.60;;;11.90;;
43146;SDS011;28752;48.266;7.402;2023-01-29T17:53:50;19.27;;;12.13;;
43146;SDS011;28752;48.266;7.402;2023-01-29T17:56:22;20.53;;;11.90;;
43146;SDS011;28752;48.266;7.402;2023-01-29T17:58:52;20.95;;;14.75;;
43146;SDS011;28752;48.266;7.402;2023-01-29T18:01:17;20.13;;;12.85;;
43146;SDS011;28752;48.266;7.402;2023-01-29T18:03:43;20.70;;;12.67;;
43146;SDS011;28752;48.266;7.402;2023-01-29T18:06:08;30.53;;;19.37;;
43146;SDS011;28752;48.266;7.402;2023-01-29T18:08:37;32.65;;;21.38;;
43146;SDS011;28752;48.266;7.402;2023-01-29T18:11:03;32.60;;;21.30;;
43146;SDS011;28752;48.266;7.402;2023-01-29T18:13:29;23.48;;;15.25;;